createdAt,value
2023-12-09T00:01:42.752Z,99.74
2023-12-09T00:04:09.695Z,99.70
2023-12-09T00:06:36.766Z,99.69
2023-12-09T00:09:04.364Z,100.00
2023-12-09T00:11:31.319Z,100.00
2023-12-09T00:14:04.734Z,99.26
2023-12-09T00:16:34.450Z,99.04
2023-12-09T00:19:01.559Z,98.92
2023-12-09T00:21:28.596Z,99.48
2023-12-09T00:23:55.368Z,100.00
2023-12-09T00:26:22.035Z,100.00
2023-12-09T00:28:48.641Z,100.00
2023-12-09T00:31:15.369Z,99.88
2023-12-09T00:33:42.338Z,100.00
2023-12-09T00:36:09.468Z,100.00
2023-12-09T00:38:36.121Z,100.00
2023-12-09T00:41:02.784Z,98.88
2023-12-09T00:43:29.397Z,99.50
2023-12-09T00:45:56.028Z,99.52
2023-12-09T00:48:23.504Z,99.26
2023-12-09T00:50:50.251Z,99.89
2023-12-09T00:53:17.017Z,99.08
2023-12-09T00:55:43.611Z,99.20
2023-12-09T00:58:10.352Z,99.14
2023-12-09T01:00:37.018Z,99.53
2023-12-09T01:03:03.809Z,99.57
2023-12-09T01:05:30.563Z,99.22
2023-12-09T01:07:57.156Z,98.46
2023-12-09T01:10:23.743Z,98.41
2023-12-09T01:12:50.942Z,99.42
2023-12-09T01:15:17.790Z,100.00
2023-12-09T01:17:44.462Z,100.00
2023-12-09T01:20:11.645Z,100.00
2023-12-09T01:22:38.251Z,100.00
2023-12-09T01:25:06.252Z,100.00
2023-12-09T01:27:32.895Z,99.48
2023-12-09T01:29:59.644Z,100.00
2023-12-09T01:32:26.486Z,100.00
2023-12-09T01:34:53.250Z,100.00
2023-12-09T01:37:20.000Z,100.00
2023-12-09T01:39:46.718Z,100.00
2023-12-09T01:42:13.379Z,100.00
2023-12-09T01:44:40.001Z,100.00
2023-12-09T01:47:08.272Z,100.00
2023-12-09T01:49:35.615Z,100.00
2023-12-09T01:52:03.293Z,100.00
2023-12-09T01:54:29.971Z,100.00
2023-12-09T01:56:57.301Z,100.00
2023-12-09T01:59:24.311Z,100.00
2023-12-09T02:01:52.970Z,100.00
2023-12-09T02:04:20.529Z,100.00
2023-12-09T02:06:47.255Z,100.00
2023-12-09T02:09:14.151Z,100.00
2023-12-09T02:11:51.862Z,100.00
2023-12-09T02:14:27.464Z,100.00
2023-12-09T02:17:01.812Z,100.00
2023-12-09T02:19:28.597Z,100.00
2023-12-09T02:22:01.590Z,100.00
2023-12-09T02:24:29.041Z,100.00
2023-12-09T02:26:59.860Z,100.00
2023-12-09T02:29:27.818Z,100.00
2023-12-09T02:32:01.303Z,100.00
2023-12-09T02:34:30.133Z,100.00
2023-12-09T02:36:57.500Z,100.00
2023-12-09T02:39:24.484Z,100.00
2023-12-09T02:41:52.010Z,100.00
2023-12-09T02:44:21.707Z,100.00
2023-12-09T02:46:57.020Z,100.00
2023-12-09T02:49:24.516Z,100.00
2023-12-09T02:51:51.244Z,100.00
2023-12-09T02:54:18.173Z,100.00
2023-12-09T02:56:44.802Z,100.00
2023-12-09T02:59:11.484Z,100.00
2023-12-09T03:01:38.175Z,100.00
2023-12-09T03:04:20.394Z,100.00
2023-12-09T03:06:58.376Z,100.00
2023-12-09T03:09:39.868Z,100.00
2023-12-09T03:12:15.768Z,100.00
2023-12-09T03:14:42.375Z,100.00
2023-12-09T03:17:10.811Z,100.00
2023-12-09T03:19:37.583Z,100.00
2023-12-09T03:22:04.640Z,100.00
2023-12-09T03:24:31.336Z,100.00
2023-12-09T03:26:57.914Z,100.00
2023-12-09T03:29:24.531Z,100.00
2023-12-09T03:31:51.142Z,100.00
2023-12-09T03:34:17.984Z,100.00
2023-12-09T03:36:44.721Z,100.00
2023-12-09T03:39:12.253Z,100.00
2023-12-09T03:41:38.859Z,100.00
2023-12-09T03:44:05.662Z,100.00
2023-12-09T03:46:32.244Z,100.00
2023-12-09T03:48:58.964Z,100.00
2023-12-09T03:51:25.578Z,100.00
2023-12-09T03:53:52.263Z,100.00
2023-12-09T03:56:18.919Z,100.00
2023-12-09T03:58:45.583Z,100.00
2023-12-09T04:01:12.297Z,100.00
2023-12-09T04:03:38.987Z,100.00
2023-12-09T04:06:06.513Z,100.00
2023-12-09T04:08:33.708Z,100.00
2023-12-09T04:11:00.284Z,100.00
2023-12-09T04:13:28.389Z,100.00
2023-12-09T04:15:55.285Z,100.00
2023-12-09T04:18:21.964Z,100.00
2023-12-09T04:20:48.621Z,100.00
2023-12-09T04:23:15.302Z,100.00
2023-12-09T04:25:41.889Z,100.00
2023-12-09T04:28:09.108Z,100.00
2023-12-09T04:30:35.828Z,100.00
2023-12-09T04:33:02.491Z,100.00
2023-12-09T04:35:29.079Z,100.00
2023-12-09T04:37:56.183Z,100.00
2023-12-09T04:40:22.786Z,100.00
2023-12-09T04:42:49.362Z,100.00
2023-12-09T04:45:16.102Z,100.00
2023-12-09T04:47:42.922Z,100.00
2023-12-09T04:50:09.861Z,100.00
2023-12-09T04:52:39.777Z,100.00
2023-12-09T04:55:06.834Z,100.00
2023-12-09T04:57:33.659Z,100.00
2023-12-09T05:00:04.499Z,100.00
2023-12-09T05:02:31.128Z,100.00
2023-12-09T05:04:57.726Z,100.00
2023-12-09T05:07:27.228Z,100.00
2023-12-09T05:09:54.142Z,100.00
2023-12-09T05:12:20.859Z,100.00
2023-12-09T05:14:47.758Z,100.00
2023-12-09T05:17:15.155Z,100.00
2023-12-09T05:19:42.125Z,100.00
2023-12-09T05:22:08.768Z,100.00
2023-12-09T05:24:35.368Z,100.00
2023-12-09T05:27:02.011Z,100.00
2023-12-09T05:29:28.647Z,100.00
2023-12-09T05:31:55.233Z,100.00
2023-12-09T05:34:21.915Z,100.00
2023-12-09T05:36:48.635Z,100.00
2023-12-09T05:39:16.120Z,100.00
2023-12-09T05:41:43.372Z,100.00
2023-12-09T05:44:10.152Z,100.00
2023-12-09T05:46:37.619Z,100.00
2023-12-09T05:49:04.432Z,100.00
2023-12-09T05:51:31.318Z,100.00
2023-12-09T05:53:58.053Z,100.00
2023-12-09T05:56:24.707Z,100.00
2023-12-09T05:58:51.343Z,100.00
2023-12-09T06:01:18.146Z,100.00
2023-12-09T06:03:44.860Z,100.00
2023-12-09T06:06:11.677Z,100.00
2023-12-09T06:08:38.458Z,100.00
2023-12-09T06:11:05.061Z,100.00
2023-12-09T06:13:32.540Z,100.00
2023-12-09T06:15:59.143Z,100.00
2023-12-09T06:18:26.792Z,100.00
2023-12-09T06:20:53.644Z,100.00
2023-12-09T06:23:20.265Z,100.00
2023-12-09T06:25:47.201Z,100.00
2023-12-09T06:28:13.828Z,100.00
2023-12-09T06:30:40.449Z,100.00
2023-12-09T06:33:07.263Z,100.00
2023-12-09T06:35:33.927Z,100.00
2023-12-09T06:38:00.680Z,100.00
2023-12-09T06:40:27.251Z,100.00
2023-12-09T06:42:53.874Z,100.00
2023-12-09T06:45:20.606Z,100.00
2023-12-09T06:47:47.388Z,100.00
2023-12-09T06:50:14.073Z,100.00
2023-12-09T06:52:40.918Z,100.00
2023-12-09T06:55:08.417Z,100.00
2023-12-09T06:57:36.068Z,100.00
2023-12-09T07:00:08.567Z,100.00
2023-12-09T07:02:44.937Z,100.00
2023-12-09T07:05:20.114Z,100.00
2023-12-09T07:07:47.149Z,100.00
2023-12-09T07:10:14.899Z,100.00
2023-12-09T07:12:44.116Z,100.00
2023-12-09T07:15:10.981Z,100.00
2023-12-09T07:17:38.980Z,100.00
2023-12-09T07:20:07.533Z,100.00
2023-12-09T07:22:34.280Z,100.00
2023-12-09T07:25:00.848Z,100.00
2023-12-09T07:27:28.161Z,100.00
2023-12-09T07:29:54.876Z,100.00
2023-12-09T07:32:21.552Z,100.00
2023-12-09T07:34:48.461Z,100.00
2023-12-09T07:37:16.068Z,100.00
2023-12-09T07:39:43.518Z,100.00
2023-12-09T07:42:11.068Z,100.00
2023-12-09T07:44:37.824Z,100.00
2023-12-09T07:47:07.225Z,100.00
2023-12-09T07:49:34.060Z,100.00
2023-12-09T07:52:01.012Z,100.00
2023-12-09T07:54:28.459Z,100.00
2023-12-09T07:56:55.243Z,100.00
2023-12-09T07:59:21.829Z,100.00
2023-12-09T08:01:48.812Z,100.00
2023-12-09T08:04:16.090Z,100.00
2023-12-09T08:06:42.822Z,100.00
2023-12-09T08:09:10.650Z,100.00
2023-12-09T08:11:37.280Z,100.00
2023-12-09T08:14:03.993Z,100.00
2023-12-09T08:16:30.618Z,100.00
2023-12-09T08:18:57.338Z,100.00
2023-12-09T08:21:26.058Z,100.00
2023-12-09T08:23:52.965Z,100.00
2023-12-09T08:26:19.847Z,100.00
2023-12-09T08:28:46.960Z,100.00
2023-12-09T08:31:13.700Z,100.00
2023-12-09T08:33:41.212Z,100.00
2023-12-09T08:36:08.590Z,100.00
2023-12-09T08:38:35.477Z,100.00
2023-12-09T08:41:02.164Z,100.00
2023-12-09T08:43:28.869Z,100.00
2023-12-09T08:45:55.451Z,100.00
2023-12-09T08:48:22.179Z,100.00
2023-12-09T08:50:49.080Z,100.00
2023-12-09T08:53:15.666Z,100.00
2023-12-09T08:55:42.486Z,100.00
2023-12-09T08:58:09.247Z,100.00
2023-12-09T09:00:36.236Z,100.00
2023-12-09T09:03:04.680Z,100.00
2023-12-09T09:05:31.536Z,100.00
2023-12-09T09:07:58.188Z,100.00
2023-12-09T09:10:24.758Z,100.00
2023-12-09T09:12:51.432Z,100.00
2023-12-09T09:15:18.285Z,100.00
2023-12-09T09:17:45.039Z,100.00
2023-12-09T09:20:12.089Z,100.00
2023-12-09T09:22:39.083Z,100.00
2023-12-09T09:25:06.183Z,100.00
2023-12-09T09:27:32.997Z,100.00
2023-12-09T09:30:00.047Z,100.00
2023-12-09T09:32:27.115Z,100.00
2023-12-09T09:34:54.183Z,100.00
2023-12-09T09:37:21.995Z,100.00
2023-12-09T09:39:51.831Z,100.00
2023-12-09T09:42:27.029Z,100.00
2023-12-09T09:45:06.623Z,100.00
2023-12-09T09:47:38.329Z,99.79
2023-12-09T09:50:09.709Z,100.00
2023-12-09T09:52:37.926Z,99.53
2023-12-09T09:55:07.640Z,99.89
2023-12-09T09:57:35.197Z,100.00
2023-12-09T10:00:02.925Z,100.00
2023-12-09T10:02:32.434Z,99.51
2023-12-09T10:04:59.033Z,98.90
2023-12-09T10:07:26.289Z,98.66
2023-12-09T10:09:52.953Z,98.31
2023-12-09T10:12:19.689Z,99.08
2023-12-09T10:14:49.077Z,99.86
2023-12-09T10:17:18.137Z,100.00
2023-12-09T10:19:46.411Z,100.00
2023-12-09T10:22:13.082Z,100.00
2023-12-09T10:24:45.860Z,100.00
2023-12-09T10:27:15.594Z,100.00
2023-12-09T10:29:44.895Z,100.00
2023-12-09T10:32:13.800Z,100.00
2023-12-09T10:34:40.941Z,100.00
2023-12-09T10:37:11.034Z,100.00
2023-12-09T10:39:37.833Z,100.00
2023-12-09T10:42:07.247Z,100.00
2023-12-09T10:44:33.936Z,100.00
2023-12-09T10:47:00.538Z,100.00
2023-12-09T10:49:27.335Z,100.00
2023-12-09T10:51:54.061Z,100.00
2023-12-09T10:54:21.259Z,100.00
2023-12-09T10:56:48.847Z,100.00
2023-12-09T10:59:18.631Z,100.00
2023-12-09T11:01:46.466Z,100.00
2023-12-09T11:04:17.068Z,100.00
2023-12-09T11:06:46.910Z,100.00
2023-12-09T11:09:15.824Z,100.00
2023-12-09T11:11:43.055Z,99.45
2023-12-09T11:14:13.008Z,98.53
2023-12-09T11:16:43.869Z,97.33
2023-12-09T11:19:18.136Z,97.45
2023-12-09T11:21:48.866Z,96.69
2023-12-09T11:24:18.593Z,96.74
2023-12-09T11:26:49.459Z,96.67
2023-12-09T11:29:21.180Z,96.13
2023-12-09T11:31:50.203Z,96.11
2023-12-09T11:34:19.489Z,96.11
2023-12-09T11:36:53.684Z,96.87
2023-12-09T11:39:23.473Z,97.04
2023-12-09T11:41:51.099Z,95.34
2023-12-09T11:44:18.417Z,96.33
2023-12-09T11:46:46.908Z,97.05
2023-12-09T11:49:14.139Z,96.79
2023-12-09T11:51:41.109Z,96.68
2023-12-09T11:54:09.981Z,96.60
2023-12-09T11:56:40.617Z,97.83
2023-12-09T11:59:07.917Z,98.05
2023-12-09T12:01:37.133Z,98.35
2023-12-09T12:04:04.347Z,97.81
2023-12-09T12:06:32.515Z,97.20
2023-12-09T12:08:59.593Z,96.47
2023-12-09T12:11:26.453Z,96.28
2023-12-09T12:13:54.337Z,94.44
2023-12-09T12:16:22.032Z,94.81
2023-12-09T12:18:49.623Z,93.64
2023-12-09T12:21:16.882Z,93.38
2023-12-09T12:23:43.828Z,94.52
2023-12-09T12:26:12.274Z,94.81
2023-12-09T12:28:39.032Z,95.37
2023-12-09T12:31:07.433Z,95.75
2023-12-09T12:33:34.783Z,96.55
2023-12-09T12:36:02.540Z,97.02
2023-12-09T12:38:29.752Z,97.36
2023-12-09T12:40:58.683Z,97.73
2023-12-09T12:43:31.860Z,97.82
2023-12-09T12:45:59.782Z,97.80
2023-12-09T12:48:26.703Z,98.09
2023-12-09T12:50:54.064Z,97.31
2023-12-09T12:53:21.702Z,97.78
2023-12-09T12:55:49.127Z,98.27
2023-12-09T12:58:16.790Z,98.65
2023-12-09T13:00:44.075Z,98.30
2023-12-09T13:03:10.830Z,98.69
2023-12-09T13:05:37.802Z,99.22
2023-12-09T13:08:05.825Z,99.12
2023-12-09T13:10:33.185Z,98.32
2023-12-09T13:13:00.099Z,98.19
2023-12-09T13:15:26.832Z,97.14
2023-12-09T13:17:53.668Z,96.50
2023-12-09T13:20:20.400Z,97.01
2023-12-09T13:22:47.242Z,96.38
2023-12-09T13:25:15.476Z,97.10
2023-12-09T13:27:43.116Z,96.76
2023-12-09T13:30:10.661Z,95.71
2023-12-09T13:32:38.917Z,95.54
2023-12-09T13:35:07.201Z,96.77
2023-12-09T13:37:34.609Z,97.70
2023-12-09T13:40:02.326Z,96.66
2023-12-09T13:42:29.704Z,98.35
2023-12-09T13:44:56.652Z,100.00
2023-12-09T13:47:23.792Z,100.00
2023-12-09T13:49:51.235Z,100.00
2023-12-09T13:52:18.836Z,100.00
2023-12-09T13:54:45.987Z,100.00
2023-12-09T13:57:12.835Z,100.00
2023-12-09T13:59:39.707Z,100.00
2023-12-09T14:02:07.798Z,100.00
2023-12-09T14:04:36.457Z,100.00
2023-12-09T14:07:03.574Z,100.00
2023-12-09T14:09:30.231Z,100.00
2023-12-09T14:11:56.997Z,100.00
2023-12-09T14:14:23.704Z,100.00
2023-12-09T14:16:50.435Z,100.00
2023-12-09T14:19:17.392Z,100.00
2023-12-09T14:21:44.144Z,100.00
2023-12-09T14:24:10.887Z,100.00
2023-12-09T14:26:37.644Z,100.00
2023-12-09T14:29:04.296Z,100.00
2023-12-09T14:31:31.033Z,100.00
2023-12-09T14:33:58.091Z,100.00
2023-12-09T14:36:25.217Z,100.00
2023-12-09T14:38:52.477Z,100.00
2023-12-09T14:41:19.340Z,100.00
2023-12-09T14:43:47.220Z,100.00
2023-12-09T14:46:15.847Z,100.00
2023-12-09T14:48:44.102Z,100.00
2023-12-09T14:51:10.911Z,100.00
2023-12-09T14:53:37.574Z,100.00
2023-12-09T14:56:04.665Z,100.00
2023-12-09T14:58:31.779Z,100.00
2023-12-09T15:00:58.700Z,100.00
2023-12-09T15:03:25.561Z,100.00
2023-12-09T15:05:52.310Z,100.00
2023-12-09T15:08:19.182Z,100.00
2023-12-09T15:10:47.044Z,100.00
2023-12-09T15:13:13.652Z,100.00
2023-12-09T15:15:40.287Z,100.00
2023-12-09T15:18:07.674Z,100.00
2023-12-09T15:20:34.406Z,100.00
2023-12-09T15:23:01.014Z,100.00
2023-12-09T15:25:27.665Z,100.00
2023-12-09T15:27:54.527Z,100.00
2023-12-09T15:30:21.419Z,100.00
2023-12-09T15:32:48.957Z,100.00
2023-12-09T15:35:15.739Z,100.00
2023-12-09T15:37:43.563Z,100.00
2023-12-09T15:40:12.015Z,100.00
2023-12-09T15:42:39.134Z,100.00
2023-12-09T15:45:06.697Z,100.00
2023-12-09T15:47:33.527Z,100.00
2023-12-09T15:50:00.447Z,100.00
2023-12-09T15:52:27.439Z,100.00
2023-12-09T15:54:54.480Z,100.00
2023-12-09T15:57:21.395Z,100.00
2023-12-09T15:59:49.512Z,100.00
2023-12-09T16:02:16.448Z,100.00
2023-12-09T16:04:43.790Z,100.00
2023-12-09T16:07:10.537Z,100.00
2023-12-09T16:09:41.158Z,100.00
2023-12-09T16:12:11.680Z,100.00
2023-12-09T16:14:41.524Z,100.00
2023-12-09T16:17:08.930Z,100.00
2023-12-09T16:19:35.972Z,100.00
2023-12-09T16:22:03.048Z,100.00
2023-12-09T16:24:29.805Z,100.00
2023-12-09T16:26:56.965Z,100.00
2023-12-09T16:29:24.317Z,100.00
2023-12-09T16:31:51.170Z,100.00
2023-12-09T16:34:17.994Z,100.00
2023-12-09T16:36:44.964Z,100.00
2023-12-09T16:39:14.147Z,100.00
2023-12-09T16:41:41.218Z,100.00
2023-12-09T16:44:11.132Z,100.00
2023-12-09T16:46:39.326Z,100.00
2023-12-09T16:49:09.228Z,100.00
2023-12-09T16:51:36.313Z,100.00
2023-12-09T16:54:03.402Z,100.00
2023-12-09T16:56:30.236Z,100.00
2023-12-09T16:58:58.057Z,100.00
2023-12-09T17:01:24.936Z,100.00
2023-12-09T17:03:51.909Z,100.00
2023-12-09T17:06:19.030Z,100.00
2023-12-09T17:08:45.751Z,100.00
2023-12-09T17:11:12.502Z,100.00
2023-12-09T17:13:39.149Z,100.00
2023-12-09T17:16:06.077Z,100.00
2023-12-09T17:18:32.867Z,100.00
2023-12-09T17:20:59.543Z,100.00
2023-12-09T17:23:26.415Z,100.00
2023-12-09T17:25:53.236Z,100.00
2023-12-09T17:28:20.204Z,100.00
2023-12-09T17:30:48.015Z,100.00
2023-12-09T17:33:14.916Z,100.00
2023-12-09T17:35:41.758Z,100.00
2023-12-09T17:38:08.764Z,100.00
2023-12-09T17:40:35.453Z,100.00
2023-12-09T17:43:02.114Z,100.00
2023-12-09T17:45:28.832Z,100.00
2023-12-09T17:47:55.626Z,100.00
2023-12-09T17:50:22.685Z,100.00
2023-12-09T17:52:49.496Z,100.00
2023-12-09T17:55:16.264Z,100.00
2023-12-09T17:57:43.201Z,100.00
2023-12-09T18:00:12.633Z,100.00
2023-12-09T18:02:39.404Z,100.00
2023-12-09T18:05:06.716Z,100.00
2023-12-09T18:07:33.535Z,100.00
2023-12-09T18:10:00.369Z,100.00
2023-12-09T18:12:27.864Z,100.00
2023-12-09T18:14:54.718Z,100.00
2023-12-09T18:17:21.614Z,100.00
2023-12-09T18:19:49.684Z,100.00
2023-12-09T18:22:18.426Z,100.00
2023-12-09T18:24:46.612Z,100.00
2023-12-09T18:27:13.268Z,100.00
2023-12-09T18:29:45.056Z,100.00
2023-12-09T18:32:16.619Z,100.00
2023-12-09T18:34:43.814Z,100.00
2023-12-09T18:37:12.223Z,100.00
2023-12-09T18:39:39.311Z,100.00
2023-12-09T18:42:06.196Z,100.00
2023-12-09T18:44:32.947Z,100.00
2023-12-09T18:46:59.662Z,100.00
2023-12-09T18:49:26.479Z,100.00
2023-12-09T18:51:53.700Z,100.00
2023-12-09T18:54:20.456Z,100.00
2023-12-09T18:56:47.205Z,100.00
2023-12-09T18:59:16.131Z,100.00
2023-12-09T19:01:44.288Z,100.00
2023-12-09T19:04:11.124Z,100.00
2023-12-09T19:06:45.789Z,100.00
2023-12-09T19:09:20.582Z,100.00
2023-12-09T19:11:47.461Z,100.00
2023-12-09T19:14:14.182Z,100.00
2023-12-09T19:16:41.702Z,100.00
2023-12-09T19:19:08.492Z,100.00
2023-12-09T19:21:40.865Z,100.00
2023-12-09T19:24:09.624Z,100.00
2023-12-09T19:26:36.871Z,100.00
2023-12-09T19:29:04.720Z,100.00
2023-12-09T19:31:31.449Z,100.00
2023-12-09T19:33:59.932Z,100.00
2023-12-09T19:36:26.790Z,100.00
2023-12-09T19:38:53.443Z,100.00
2023-12-09T19:41:20.292Z,100.00
2023-12-09T19:43:46.934Z,100.00
2023-12-09T19:46:13.663Z,100.00
2023-12-09T19:48:41.353Z,100.00
2023-12-09T19:51:08.168Z,100.00
2023-12-09T19:53:34.974Z,100.00
2023-12-09T19:56:01.628Z,100.00
2023-12-09T19:58:28.416Z,100.00
2023-12-09T20:00:55.268Z,100.00
2023-12-09T20:03:22.171Z,100.00
2023-12-09T20:05:48.848Z,100.00
2023-12-09T20:08:15.568Z,100.00
2023-12-09T20:10:43.017Z,100.00
2023-12-09T20:13:09.935Z,100.00
2023-12-09T20:15:36.713Z,100.00
2023-12-09T20:18:03.697Z,100.00
2023-12-09T20:20:30.722Z,100.00
2023-12-09T20:22:57.960Z,100.00
2023-12-09T20:25:24.694Z,100.00
2023-12-09T20:27:53.077Z,100.00
2023-12-09T20:30:20.213Z,100.00
2023-12-09T20:32:47.432Z,100.00
2023-12-09T20:35:14.144Z,100.00
2023-12-09T20:37:41.346Z,100.00
2023-12-09T20:40:08.734Z,100.00
2023-12-09T20:42:35.465Z,100.00
2023-12-09T20:45:04.212Z,100.00
2023-12-09T20:47:30.985Z,100.00
2023-12-09T20:49:57.754Z,100.00
2023-12-09T20:52:24.733Z,100.00
2023-12-09T20:54:51.567Z,100.00
2023-12-09T20:57:18.377Z,100.00
2023-12-09T20:59:45.442Z,100.00
2023-12-09T21:02:12.232Z,100.00
2023-12-09T21:04:43.989Z,100.00
2023-12-09T21:07:11.029Z,100.00
2023-12-09T21:09:40.280Z,100.00
2023-12-09T21:12:07.663Z,100.00
2023-12-09T21:14:35.234Z,100.00
2023-12-09T21:17:01.904Z,100.00
2023-12-09T21:19:32.180Z,100.00
2023-12-09T21:21:59.093Z,100.00
2023-12-09T21:24:25.843Z,100.00
2023-12-09T21:26:54.220Z,100.00
2023-12-09T21:29:20.981Z,100.00
2023-12-09T21:31:47.688Z,100.00
2023-12-09T21:34:14.793Z,100.00
2023-12-09T21:36:41.586Z,100.00
2023-12-09T21:39:09.916Z,100.00
2023-12-09T21:41:36.827Z,100.00
2023-12-09T21:44:03.555Z,100.00
2023-12-09T21:46:30.599Z,100.00
2023-12-09T21:48:57.490Z,100.00
2023-12-09T21:51:24.259Z,100.00
2023-12-09T21:53:51.015Z,100.00
2023-12-09T21:56:25.518Z,100.00
2023-12-09T21:58:53.122Z,100.00
2023-12-09T22:01:20.596Z,100.00
2023-12-09T22:03:48.277Z,100.00
2023-12-09T22:06:15.652Z,100.00
2023-12-09T22:08:43.464Z,100.00
2023-12-09T22:11:10.966Z,100.00
2023-12-09T22:13:37.762Z,100.00
2023-12-09T22:16:04.704Z,100.00
2023-12-09T22:18:31.636Z,100.00
2023-12-09T22:21:01.119Z,100.00
2023-12-09T22:23:28.143Z,100.00
2023-12-09T22:25:55.449Z,100.00
2023-12-09T22:28:22.455Z,100.00
2023-12-09T22:30:49.235Z,100.00
2023-12-09T22:33:16.155Z,100.00
2023-12-09T22:35:42.875Z,100.00
2023-12-09T22:38:09.524Z,100.00
2023-12-09T22:40:37.174Z,100.00
2023-12-09T22:43:03.974Z,100.00
2023-12-09T22:45:30.662Z,100.00
2023-12-09T22:47:57.780Z,100.00
2023-12-09T22:50:24.569Z,100.00
2023-12-09T22:52:51.177Z,100.00
2023-12-09T22:55:17.838Z,100.00
2023-12-09T22:57:44.527Z,100.00
2023-12-09T23:00:19.551Z,100.00
2023-12-09T23:02:46.285Z,100.00
2023-12-09T23:05:12.998Z,100.00
2023-12-09T23:07:39.689Z,100.00
2023-12-09T23:10:06.823Z,100.00
2023-12-09T23:12:33.640Z,100.00
2023-12-09T23:15:00.340Z,100.00
2023-12-09T23:17:27.173Z,100.00
2023-12-09T23:19:53.873Z,100.00
2023-12-09T23:22:20.592Z,100.00
2023-12-09T23:24:47.284Z,100.00
2023-12-09T23:27:13.970Z,100.00
2023-12-09T23:29:40.639Z,100.00
2023-12-09T23:32:07.523Z,100.00
2023-12-09T23:34:34.604Z,100.00
2023-12-09T23:37:01.340Z,100.00
2023-12-09T23:39:28.059Z,100.00
2023-12-09T23:41:54.691Z,100.00
2023-12-09T23:44:22.819Z,100.00
2023-12-09T23:46:49.550Z,100.00
2023-12-09T23:49:16.249Z,100.00
2023-12-09T23:51:43.032Z,100.00
2023-12-09T23:54:09.795Z,100.00
2023-12-09T23:56:36.548Z,100.00
2023-12-09T23:59:03.249Z,100.00
